sensor_id;sensor_type;location;lat;lon;timestamp;temperature;humidity
7155;DHT22;3619;53.784;10.440;2023-06-19T00:00:14;17.60;99.90
7155;DHT22;3619;53.784;10.440;2023-06-19T00:02:42;17.70;99.90
7155;DHT22;3619;53.784;10.440;2023-06-19T00:05:13;17.70;99.90
7155;DHT22;3619;53.784;10.440;2023-06-19T00:07:39;17.70;99.90
7155;DHT22;3619;53.784;10.440;2023-06-19T00:10:06;17.60;99.90
7155;DHT22;3619;53.784;10.440;2023-06-19T00:12:33;17.60;99.90
7155;DHT22;3619;53.784;10.440;2023-06-19T00:15:00;17.60;99.90
7155;DHT22;3619;53.784;10.440;2023-06-19T00:17:28;17.50;99.90
7155;DHT22;3619;53.784;10.440;2023-06-19T00:19:55;17.40;99.90
7155;DHT22;3619;53.784;10.440;2023-06-19T00:22:24;17.40;99.90
7155;DHT22;3619;53.784;10.440;2023-06-19T00:24:51;17.40;99.90
7155;DHT22;3619;53.784;10.440;2023-06-19T00:27:18;17.40;99.90
7155;DHT22;3619;53.784;10.440;2023-06-19T00:29:45;17.40;99.90
7155;DHT22;3619;53.784;10.440;2023-06-19T00:32:11;17.50;99.90
7155;DHT22;3619;53.784;10.440;2023-06-19T00:34:38;17.40;99.90
7155;DHT22;3619;53.784;10.440;2023-06-19T00:37:08;17.40;99.90
7155;DHT22;3619;53.784;10.440;2023-06-19T00:39:36;17.50;99.90
7155;DHT22;3619;53.784;10.440;2023-06-19T00:42:04;17.50;99.90
7155;DHT22;3619;53.784;10.440;2023-06-19T00:44:30;17.50;99.90
7155;DHT22;3619;53.784;10.440;2023-06-19T00:46:58;17.40;99.90
7155;DHT22;3619;53.784;10.440;2023-06-19T00:49:29;17.50;99.90
7155;DHT22;3619;53.784;10.440;2023-06-19T00:51:56;17.30;99.90
7155;DHT22;3619;53.784;10.440;2023-06-19T00:54:24;17.30;99.90
7155;DHT22;3619;53.784;10.440;2023-06-19T00:56:52;17.20;99.90
7155;DHT22;3619;53.784;10.440;2023-06-19T00:59:19;17.20;99.90
7155;DHT22;3619;53.784;10.440;2023-06-19T01:01:46;17.20;99.90
7155;DHT22;3619;53.784;10.440;2023-06-19T01:04:15;17.20;99.90
7155;DHT22;3619;53.784;10.440;2023-06-19T01:06:52;17.20;99.90
7155;DHT22;3619;53.784;10.440;2023-06-19T01:09:26;17.10;99.90
7155;DHT22;3619;53.784;10.440;2023-06-19T01:12:01;17.10;99.90
7155;DHT22;3619;53.784;10.440;2023-06-19T01:14:33;17.00;99.90
7155;DHT22;3619;53.784;10.440;2023-06-19T01:17:02;16.90;99.90
7155;DHT22;3619;53.784;10.440;2023-06-19T01:19:30;16.80;99.90
7155;DHT22;3619;53.784;10.440;2023-06-19T01:21:56;16.80;99.90
7155;DHT22;3619;53.784;10.440;2023-06-19T01:24:25;16.80;99.90
7155;DHT22;3619;53.784;10.440;2023-06-19T01:26:51;16.90;99.90
7155;DHT22;3619;53.784;10.440;2023-06-19T01:29:18;17.00;99.90
7155;DHT22;3619;53.784;10.440;2023-06-19T01:31:56;17.00;99.90
7155;DHT22;3619;53.784;10.440;2023-06-19T01:34:25;17.00;99.90
7155;DHT22;3619;53.784;10.440;2023-06-19T01:36:54;17.00;99.90
7155;DHT22;3619;53.784;10.440;2023-06-19T01:39:24;17.00;99.90
7155;DHT22;3619;53.784;10.440;2023-06-19T01:41:52;17.10;99.90
7155;DHT22;3619;53.784;10.440;2023-06-19T01:44:21;17.10;99.90
7155;DHT22;3619;53.784;10.440;2023-06-19T01:46:48;17.10;99.90
7155;DHT22;3619;53.784;10.440;2023-06-19T01:49:15;17.10;99.90
7155;DHT22;3619;53.784;10.440;2023-06-19T01:51:42;17.10;99.90
7155;DHT22;3619;53.784;10.440;2023-06-19T01:54:09;17.10;99.90
7155;DHT22;3619;53.784;10.440;2023-06-19T01:56:37;17.10;99.90
7155;DHT22;3619;53.784;10.440;2023-06-19T01:59:04;17.00;99.90
7155;DHT22;3619;53.784;10.440;2023-06-19T02:01:31;16.90;99.90
7155;DHT22;3619;53.784;10.440;2023-06-19T02:03:57;16.90;99.90
7155;DHT22;3619;53.784;10.440;2023-06-19T02:06:24;16.90;99.90
7155;DHT22;3619;53.784;10.440;2023-06-19T02:08:51;16.80;99.90
7155;DHT22;3619;53.784;10.440;2023-06-19T02:11:18;16.80;99.90
7155;DHT22;3619;53.784;10.440;2023-06-19T02:13:46;16.80;99.90
7155;DHT22;3619;53.784;10.440;2023-06-19T02:16:13;16.90;99.90
7155;DHT22;3619;53.784;10.440;2023-06-19T02:18:39;16.80;99.90
7155;DHT22;3619;53.784;10.440;2023-06-19T02:21:06;16.80;99.90
7155;DHT22;3619;53.784;10.440;2023-06-19T02:23:33;16.80;99.90
7155;DHT22;3619;53.784;10.440;2023-06-19T02:26:00;16.70;99.90
7155;DHT22;3619;53.784;10.440;2023-06-19T02:28:26;16.70;99.90
7155;DHT22;3619;53.784;10.440;2023-06-19T02:30:55;16.60;99.90
7155;DHT22;3619;53.784;10.440;2023-06-19T02:33:22;16.60;99.90
7155;DHT22;3619;53.784;10.440;2023-06-19T02:35:48;16.60;99.90
7155;DHT22;3619;53.784;10.440;2023-06-19T02:38:16;16.50;99.90
7155;DHT22;3619;53.784;10.440;2023-06-19T02:40:46;16.50;99.90
7155;DHT22;3619;53.784;10.440;2023-06-19T02:43:13;16.50;99.90
7155;DHT22;3619;53.784;10.440;2023-06-19T02:45:41;16.50;99.90
7155;DHT22;3619;53.784;10.440;2023-06-19T02:48:09;16.50;99.90
7155;DHT22;3619;53.784;10.440;2023-06-19T02:50:36;16.50;99.90
7155;DHT22;3619;53.784;10.440;2023-06-19T02:53:03;16.60;99.90
7155;DHT22;3619;53.784;10.440;2023-06-19T02:55:31;16.70;99.90
7155;DHT22;3619;53.784;10.440;2023-06-19T02:57:58;16.80;99.90
7155;DHT22;3619;53.784;10.440;2023-06-19T03:00:25;16.80;99.90
7155;DHT22;3619;53.784;10.440;2023-06-19T03:02:54;16.80;99.90
7155;DHT22;3619;53.784;10.440;2023-06-19T03:05:22;16.90;99.90
7155;DHT22;3619;53.784;10.440;2023-06-19T03:07:49;16.90;99.90
7155;DHT22;3619;53.784;10.440;2023-06-19T03:10:15;16.90;99.90
7155;DHT22;3619;53.784;10.440;2023-06-19T03:12:42;16.90;99.90
7155;DHT22;3619;53.784;10.440;2023-06-19T03:15:09;16.90;99.90
7155;DHT22;3619;53.784;10.440;2023-06-19T03:17:36;16.90;99.90
7155;DHT22;3619;53.784;10.440;2023-06-19T03:20:03;16.90;99.90
7155;DHT22;3619;53.784;10.440;2023-06-19T03:22:33;16.90;99.90
7155;DHT22;3619;53.784;10.440;2023-06-19T03:25:01;16.80;99.90
7155;DHT22;3619;53.784;10.440;2023-06-19T03:27:30;16.80;99.90
7155;DHT22;3619;53.784;10.440;2023-06-19T03:29:57;16.90;99.90
7155;DHT22;3619;53.784;10.440;2023-06-19T03:32:24;16.90;99.90
7155;DHT22;3619;53.784;10.440;2023-06-19T03:34:51;16.80;99.90
7155;DHT22;3619;53.784;10.440;2023-06-19T03:37:18;16.80;99.90
7155;DHT22;3619;53.784;10.440;2023-06-19T03:39:46;16.70;99.90
7155;DHT22;3619;53.784;10.440;2023-06-19T03:42:13;16.70;99.90
7155;DHT22;3619;53.784;10.440;2023-06-19T03:44:40;16.70;99.90
7155;DHT22;3619;53.784;10.440;2023-06-19T03:47:07;16.70;99.90
7155;DHT22;3619;53.784;10.440;2023-06-19T03:49:34;16.70;99.90
7155;DHT22;3619;53.784;10.440;2023-06-19T03:52:01;16.70;99.90
7155;DHT22;3619;53.784;10.440;2023-06-19T03:54:28;16.70;99.90
7155;DHT22;3619;53.784;10.440;2023-06-19T03:56:57;16.80;99.90
7155;DHT22;3619;53.784;10.440;2023-06-19T03:59:24;16.80;99.90
7155;DHT22;3619;53.784;10.440;2023-06-19T04:01:51;16.90;99.90
7155;DHT22;3619;53.784;10.440;2023-06-19T04:04:18;16.90;99.90
7155;DHT22;3619;53.784;10.440;2023-06-19T04:06:45;16.90;99.90
7155;DHT22;3619;53.784;10.440;2023-06-19T04:09:12;16.90;99.90
7155;DHT22;3619;53.784;10.440;2023-06-19T04:11:40;17.00;99.90
7155;DHT22;3619;53.784;10.440;2023-06-19T04:14:08;17.00;99.90
7155;DHT22;3619;53.784;10.440;2023-06-19T04:16:37;17.00;99.90
7155;DHT22;3619;53.784;10.440;2023-06-19T04:19:04;17.10;99.90
7155;DHT22;3619;53.784;10.440;2023-06-19T04:21:31;17.10;99.90
7155;DHT22;3619;53.784;10.440;2023-06-19T04:23:57;17.10;99.90
7155;DHT22;3619;53.784;10.440;2023-06-19T04:26:24;17.10;99.90
7155;DHT22;3619;53.784;10.440;2023-06-19T04:28:51;17.10;99.90
7155;DHT22;3619;53.784;10.440;2023-06-19T04:31:19;17.20;99.90
7155;DHT22;3619;53.784;10.440;2023-06-19T04:33:47;17.20;99.90
7155;DHT22;3619;53.784;10.440;2023-06-19T04:36:14;17.20;99.90
7155;DHT22;3619;53.784;10.440;2023-06-19T04:38:41;17.20;99.90
7155;DHT22;3619;53.784;10.440;2023-06-19T04:41:08;17.20;99.90
7155;DHT22;3619;53.784;10.440;2023-06-19T04:43:35;17.20;99.90
7155;DHT22;3619;53.784;10.440;2023-06-19T04:46:01;17.30;99.90
7155;DHT22;3619;53.784;10.440;2023-06-19T04:48:30;17.30;99.90
7155;DHT22;3619;53.784;10.440;2023-06-19T04:50:57;17.30;99.90
7155;DHT22;3619;53.784;10.440;2023-06-19T04:53:26;17.30;99.90
7155;DHT22;3619;53.784;10.440;2023-06-19T04:55:53;17.30;99.90
7155;DHT22;3619;53.784;10.440;2023-06-19T04:58:22;17.30;99.90
7155;DHT22;3619;53.784;10.440;2023-06-19T05:00:48;17.40;99.90
7155;DHT22;3619;53.784;10.440;2023-06-19T05:03:16;17.40;99.90
7155;DHT22;3619;53.784;10.440;2023-06-19T05:05:45;17.40;99.90
7155;DHT22;3619;53.784;10.440;2023-06-19T05:08:12;17.40;99.90
7155;DHT22;3619;53.784;10.440;2023-06-19T05:10:39;17.40;99.90
7155;DHT22;3619;53.784;10.440;2023-06-19T05:13:06;17.40;99.90
7155;DHT22;3619;53.784;10.440;2023-06-19T05:15:33;17.40;99.90
7155;DHT22;3619;53.784;10.440;2023-06-19T05:18:00;17.40;99.90
7155;DHT22;3619;53.784;10.440;2023-06-19T05:20:26;17.40;99.90
7155;DHT22;3619;53.784;10.440;2023-06-19T05:22:56;17.50;99.90
7155;DHT22;3619;53.784;10.440;2023-06-19T05:25:22;17.50;99.90
7155;DHT22;3619;53.784;10.440;2023-06-19T05:27:50;17.50;99.90
7155;DHT22;3619;53.784;10.440;2023-06-19T05:30:17;17.50;99.90
7155;DHT22;3619;53.784;10.440;2023-06-19T05:32:44;17.50;99.90
7155;DHT22;3619;53.784;10.440;2023-06-19T05:35:11;17.60;99.90
7155;DHT22;3619;53.784;10.440;2023-06-19T05:37:37;17.60;99.90
7155;DHT22;3619;53.784;10.440;2023-06-19T05:40:07;17.60;99.90
7155;DHT22;3619;53.784;10.440;2023-06-19T05:42:35;17.70;99.90
7155;DHT22;3619;53.784;10.440;2023-06-19T05:45:02;17.70;99.90
7155;DHT22;3619;53.784;10.440;2023-06-19T05:47:29;17.70;99.90
7155;DHT22;3619;53.784;10.440;2023-06-19T05:49:56;17.70;99.90
7155;DHT22;3619;53.784;10.440;2023-06-19T05:52:23;17.70;99.90
7155;DHT22;3619;53.784;10.440;2023-06-19T05:54:50;17.70;99.90
7155;DHT22;3619;53.784;10.440;2023-06-19T05:57:19;17.70;99.90
7155;DHT22;3619;53.784;10.440;2023-06-19T05:59:46;17.70;99.90
7155;DHT22;3619;53.784;10.440;2023-06-19T06:02:15;17.70;99.90
7155;DHT22;3619;53.784;10.440;2023-06-19T06:04:42;17.60;99.90
7155;DHT22;3619;53.784;10.440;2023-06-19T06:07:09;17.60;99.90
7155;DHT22;3619;53.784;10.440;2023-06-19T06:09:36;17.60;99.90
7155;DHT22;3619;53.784;10.440;2023-06-19T06:12:03;17.60;99.90
7155;DHT22;3619;53.784;10.440;2023-06-19T06:14:32;17.60;99.90
7155;DHT22;3619;53.784;10.440;2023-06-19T06:16:58;17.60;99.90
7155;DHT22;3619;53.784;10.440;2023-06-19T06:19:25;17.70;99.90
7155;DHT22;3619;53.784;10.440;2023-06-19T06:21:52;17.70;99.90
7155;DHT22;3619;53.784;10.440;2023-06-19T06:24:19;17.70;99.90
7155;DHT22;3619;53.784;10.440;2023-06-19T06:26:46;17.70;99.90
7155;DHT22;3619;53.784;10.440;2023-06-19T06:29:13;17.70;99.90
7155;DHT22;3619;53.784;10.440;2023-06-19T06:31:41;17.80;99.90
7155;DHT22;3619;53.784;10.440;2023-06-19T06:34:08;17.90;99.90
7155;DHT22;3619;53.784;10.440;2023-06-19T06:36:35;17.90;99.90
7155;DHT22;3619;53.784;10.440;2023-06-19T06:39:02;17.90;99.90
7155;DHT22;3619;53.784;10.440;2023-06-19T06:41:29;17.90;99.90
7155;DHT22;3619;53.784;10.440;2023-06-19T06:43:56;17.90;99.90
7155;DHT22;3619;53.784;10.440;2023-06-19T06:46:23;18.00;99.90
7155;DHT22;3619;53.784;10.440;2023-06-19T06:48:51;18.00;99.90
7155;DHT22;3619;53.784;10.440;2023-06-19T06:51:19;18.00;99.90
7155;DHT22;3619;53.784;10.440;2023-06-19T06:53:46;18.20;99.90
7155;DHT22;3619;53.784;10.440;2023-06-19T06:56:13;18.20;99.90
7155;DHT22;3619;53.784;10.440;2023-06-19T06:58:40;18.20;99.90
7155;DHT22;3619;53.784;10.440;2023-06-19T07:01:06;18.30;99.90
7155;DHT22;3619;53.784;10.440;2023-06-19T07:03:33;18.30;99.90
7155;DHT22;3619;53.784;10.440;2023-06-19T07:06:02;18.40;99.90
7155;DHT22;3619;53.784;10.440;2023-06-19T07:08:28;18.30;99.90
7155;DHT22;3619;53.784;10.440;2023-06-19T07:10:55;18.40;99.90
7155;DHT22;3619;53.784;10.440;2023-06-19T07:13:22;18.50;99.90
7155;DHT22;3619;53.784;10.440;2023-06-19T07:15:49;18.50;99.90
7155;DHT22;3619;53.784;10.440;2023-06-19T07:18:16;18.50;99.90
7155;DHT22;3619;53.784;10.440;2023-06-19T07:20:43;18.60;99.90
7155;DHT22;3619;53.784;10.440;2023-06-19T07:23:11;18.60;99.90
7155;DHT22;3619;53.784;10.440;2023-06-19T07:25:38;18.60;99.90
7155;DHT22;3619;53.784;10.440;2023-06-19T07:28:05;18.70;99.90
7155;DHT22;3619;53.784;10.440;2023-06-19T07:30:32;18.70;99.90
7155;DHT22;3619;53.784;10.440;2023-06-19T07:32:59;18.60;99.90
7155;DHT22;3619;53.784;10.440;2023-06-19T07:35:26;18.60;99.90
7155;DHT22;3619;53.784;10.440;2023-06-19T07:37:54;18.50;99.90
7155;DHT22;3619;53.784;10.440;2023-06-19T07:40:23;18.50;99.90
7155;DHT22;3619;53.784;10.440;2023-06-19T07:42:49;18.60;99.90
7155;DHT22;3619;53.784;10.440;2023-06-19T07:45:16;18.60;99.90
7155;DHT22;3619;53.784;10.440;2023-06-19T07:47:43;18.60;99.90
7155;DHT22;3619;53.784;10.440;2023-06-19T07:50:10;18.70;99.90
7155;DHT22;3619;53.784;10.440;2023-06-19T07:52:37;18.70;99.90
7155;DHT22;3619;53.784;10.440;2023-06-19T07:55:05;18.80;99.90
7155;DHT22;3619;53.784;10.440;2023-06-19T07:57:36;18.80;99.90
7155;DHT22;3619;53.784;10.440;2023-06-19T08:00:04;18.90;99.90
7155;DHT22;3619;53.784;10.440;2023-06-19T08:02:33;19.10;99.90
7155;DHT22;3619;53.784;10.440;2023-06-19T08:05:01;19.20;99.90
7155;DHT22;3619;53.784;10.440;2023-06-19T08:07:28;19.30;99.90
7155;DHT22;3619;53.784;10.440;2023-06-19T08:09:55;19.30;99.90
7155;DHT22;3619;53.784;10.440;2023-06-19T08:12:22;19.30;99.90
7155;DHT22;3619;53.784;10.440;2023-06-19T08:14:50;19.40;99.90
7155;DHT22;3619;53.784;10.440;2023-06-19T08:17:16;19.40;99.90
7155;DHT22;3619;53.784;10.440;2023-06-19T08:19:43;19.50;99.90
7155;DHT22;3619;53.784;10.440;2023-06-19T08:22:10;19.60;99.90
7155;DHT22;3619;53.784;10.440;2023-06-19T08:24:37;19.60;99.90
7155;DHT22;3619;53.784;10.440;2023-06-19T08:27:05;19.60;99.90
7155;DHT22;3619;53.784;10.440;2023-06-19T08:29:33;19.70;99.90
7155;DHT22;3619;53.784;10.440;2023-06-19T08:32:01;19.70;99.90
7155;DHT22;3619;53.784;10.440;2023-06-19T08:34:28;19.80;99.90
7155;DHT22;3619;53.784;10.440;2023-06-19T08:36:55;19.90;99.90
7155;DHT22;3619;53.784;10.440;2023-06-19T08:39:22;20.00;99.90
7155;DHT22;3619;53.784;10.440;2023-06-19T08:41:49;20.10;99.90
7155;DHT22;3619;53.784;10.440;2023-06-19T08:44:15;20.20;99.90
7155;DHT22;3619;53.784;10.440;2023-06-19T08:46:42;20.40;99.90
7155;DHT22;3619;53.784;10.440;2023-06-19T08:49:11;20.50;99.90
7155;DHT22;3619;53.784;10.440;2023-06-19T08:51:38;20.60;99.90
7155;DHT22;3619;53.784;10.440;2023-06-19T08:54:06;20.60;99.90
7155;DHT22;3619;53.784;10.440;2023-06-19T08:56:35;20.90;99.90
7155;DHT22;3619;53.784;10.440;2023-06-19T08:59:10;21.40;99.90
7155;DHT22;3619;53.784;10.440;2023-06-19T09:01:37;21.80;99.90
7155;DHT22;3619;53.784;10.440;2023-06-19T09:04:13;22.00;99.90
7155;DHT22;3619;53.784;10.440;2023-06-19T09:06:49;22.50;99.90
7155;DHT22;3619;53.784;10.440;2023-06-19T09:09:18;22.80;99.90
7155;DHT22;3619;53.784;10.440;2023-06-19T09:11:58;23.10;99.90
7155;DHT22;3619;53.784;10.440;2023-06-19T09:14:32;23.50;99.90
7155;DHT22;3619;53.784;10.440;2023-06-19T09:16:59;23.80;99.90
7155;DHT22;3619;53.784;10.440;2023-06-19T09:19:27;23.90;99.90
7155;DHT22;3619;53.784;10.440;2023-06-19T09:21:59;23.80;99.90
7155;DHT22;3619;53.784;10.440;2023-06-19T09:24:33;23.90;99.90
7155;DHT22;3619;53.784;10.440;2023-06-19T09:27:06;24.20;99.90
7155;DHT22;3619;53.784;10.440;2023-06-19T09:29:36;24.60;99.90
7155;DHT22;3619;53.784;10.440;2023-06-19T09:32:17;24.90;99.90
7155;DHT22;3619;53.784;10.440;2023-06-19T09:34:45;25.10;99.90
7155;DHT22;3619;53.784;10.440;2023-06-19T09:37:13;25.10;99.90
7155;DHT22;3619;53.784;10.440;2023-06-19T09:39:40;25.20;99.90
7155;DHT22;3619;53.784;10.440;2023-06-19T09:42:08;25.30;99.90
7155;DHT22;3619;53.784;10.440;2023-06-19T09:44:40;25.50;99.90
7155;DHT22;3619;53.784;10.440;2023-06-19T09:47:17;25.50;99.90
7155;DHT22;3619;53.784;10.440;2023-06-19T09:49:54;25.10;99.90
7155;DHT22;3619;53.784;10.440;2023-06-19T09:52:21;24.70;99.90
7155;DHT22;3619;53.784;10.440;2023-06-19T09:54:50;24.70;99.90
7155;DHT22;3619;53.784;10.440;2023-06-19T09:57:17;24.50;99.90
7155;DHT22;3619;53.784;10.440;2023-06-19T09:59:46;24.40;99.90
7155;DHT22;3619;53.784;10.440;2023-06-19T10:02:15;24.60;99.90
7155;DHT22;3619;53.784;10.440;2023-06-19T10:04:44;24.90;99.90
7155;DHT22;3619;53.784;10.440;2023-06-19T10:07:20;25.60;99.90
7155;DHT22;3619;53.784;10.440;2023-06-19T10:10:01;26.40;99.90
7155;DHT22;3619;53.784;10.440;2023-06-19T10:12:40;26.70;99.90
7155;DHT22;3619;53.784;10.440;2023-06-19T10:15:20;26.50;99.90
7155;DHT22;3619;53.784;10.440;2023-06-19T10:17:49;26.20;99.90
7155;DHT22;3619;53.784;10.440;2023-06-19T10:20:24;26.20;99.90
7155;DHT22;3619;53.784;10.440;2023-06-19T10:23:01;26.30;99.90
7155;DHT22;3619;53.784;10.440;2023-06-19T10:25:30;26.60;99.90
7155;DHT22;3619;53.784;10.440;2023-06-19T10:27:58;26.70;99.90
7155;DHT22;3619;53.784;10.440;2023-06-19T10:30:25;26.80;99.90
7155;DHT22;3619;53.784;10.440;2023-06-19T10:32:52;26.70;99.90
7155;DHT22;3619;53.784;10.440;2023-06-19T10:35:20;26.90;99.90
7155;DHT22;3619;53.784;10.440;2023-06-19T10:37:49;27.10;99.90
7155;DHT22;3619;53.784;10.440;2023-06-19T10:40:17;27.40;99.90
7155;DHT22;3619;53.784;10.440;2023-06-19T10:42:45;27.70;99.90
7155;DHT22;3619;53.784;10.440;2023-06-19T10:45:14;27.70;99.90
7155;DHT22;3619;53.784;10.440;2023-06-19T10:47:42;27.60;99.90
7155;DHT22;3619;53.784;10.440;2023-06-19T10:50:11;27.70;99.90
7155;DHT22;3619;53.784;10.440;2023-06-19T10:52:42;27.80;99.90
7155;DHT22;3619;53.784;10.440;2023-06-19T10:55:11;27.90;99.90
7155;DHT22;3619;53.784;10.440;2023-06-19T10:57:40;28.10;99.90
7155;DHT22;3619;53.784;10.440;2023-06-19T11:00:08;28.30;99.90
7155;DHT22;3619;53.784;10.440;2023-06-19T11:02:39;28.10;99.90
7155;DHT22;3619;53.784;10.440;2023-06-19T11:05:09;28.00;99.90
7155;DHT22;3619;53.784;10.440;2023-06-19T11:07:36;28.00;99.90
7155;DHT22;3619;53.784;10.440;2023-06-19T11:10:04;28.20;99.90
7155;DHT22;3619;53.784;10.440;2023-06-19T11:12:34;28.10;99.90
7155;DHT22;3619;53.784;10.440;2023-06-19T11:15:05;27.90;99.90
7155;DHT22;3619;53.784;10.440;2023-06-19T11:17:32;27.50;99.90
7155;DHT22;3619;53.784;10.440;2023-06-19T11:19:59;27.20;99.90
7155;DHT22;3619;53.784;10.440;2023-06-19T11:22:40;27.00;99.90
7155;DHT22;3619;53.784;10.440;2023-06-19T11:25:08;26.90;99.90
7155;DHT22;3619;53.784;10.440;2023-06-19T11:27:38;26.80;99.90
7155;DHT22;3619;53.784;10.440;2023-06-19T11:30:07;26.70;99.90
7155;DHT22;3619;53.784;10.440;2023-06-19T11:32:37;27.20;99.90
7155;DHT22;3619;53.784;10.440;2023-06-19T11:35:09;27.60;99.90
7155;DHT22;3619;53.784;10.440;2023-06-19T11:37:39;28.00;99.90
7155;DHT22;3619;53.784;10.440;2023-06-19T11:40:07;28.20;99.90
7155;DHT22;3619;53.784;10.440;2023-06-19T11:42:52;28.30;99.90
7155;DHT22;3619;53.784;10.440;2023-06-19T11:45:21;28.20;99.90
7155;DHT22;3619;53.784;10.440;2023-06-19T11:47:49;28.40;99.90
7155;DHT22;3619;53.784;10.440;2023-06-19T11:50:16;28.70;99.90
7155;DHT22;3619;53.784;10.440;2023-06-19T11:52:44;28.90;99.90
7155;DHT22;3619;53.784;10.440;2023-06-19T11:55:12;29.00;99.90
7155;DHT22;3619;53.784;10.440;2023-06-19T11:57:39;29.10;99.90
7155;DHT22;3619;53.784;10.440;2023-06-19T12:00:16;29.20;99.90
7155;DHT22;3619;53.784;10.440;2023-06-19T12:02:51;29.40;99.90
7155;DHT22;3619;53.784;10.440;2023-06-19T12:05:19;29.50;99.90
7155;DHT22;3619;53.784;10.440;2023-06-19T12:09:05;29.30;99.90
7155;DHT22;3619;53.784;10.440;2023-06-19T12:11:39;29.40;99.90
7155;DHT22;3619;53.784;10.440;2023-06-19T12:13:55;29.50;99.90
7155;DHT22;3619;53.784;10.440;2023-06-19T12:17:35;29.80;99.90
7155;DHT22;3619;53.784;10.440;2023-06-19T12:20:31;29.40;99.90
7155;DHT22;3619;53.784;10.440;2023-06-19T12:23:23;29.10;99.90
7155;DHT22;3619;53.784;10.440;2023-06-19T12:26:01;28.90;99.90
7155;DHT22;3619;53.784;10.440;2023-06-19T12:28:49;28.90;99.90
7155;DHT22;3619;53.784;10.440;2023-06-19T12:31:18;29.40;99.90
7155;DHT22;3619;53.784;10.440;2023-06-19T12:33:45;29.70;99.90
7155;DHT22;3619;53.784;10.440;2023-06-19T12:36:17;29.90;99.90
7155;DHT22;3619;53.784;10.440;2023-06-19T12:38:44;29.80;99.90
7155;DHT22;3619;53.784;10.440;2023-06-19T12:41:36;29.90;99.90
7155;DHT22;3619;53.784;10.440;2023-06-19T12:44:43;29.90;99.90
7155;DHT22;3619;53.784;10.440;2023-06-19T13:07:28;28.70;99.90
7155;DHT22;3619;53.784;10.440;2023-06-19T13:13:27;28.60;99.90
7155;DHT22;3619;53.784;10.440;2023-06-19T13:32:08;28.90;99.90
7155;DHT22;3619;53.784;10.440;2023-06-19T13:35:12;28.50;99.90
7155;DHT22;3619;53.784;10.440;2023-06-19T14:01:24;27.20;99.90
7155;DHT22;3619;53.784;10.440;2023-06-19T14:21:19;27.30;99.90
7155;DHT22;3619;53.784;10.440;2023-06-19T14:23:47;27.30;99.90
7155;DHT22;3619;53.784;10.440;2023-06-19T14:26:13;27.30;99.90
7155;DHT22;3619;53.784;10.440;2023-06-19T14:28:41;27.20;99.90
7155;DHT22;3619;53.784;10.440;2023-06-19T14:31:08;27.30;99.90
7155;DHT22;3619;53.784;10.440;2023-06-19T14:33:36;27.20;99.90
7155;DHT22;3619;53.784;10.440;2023-06-19T14:36:04;27.00;99.90
7155;DHT22;3619;53.784;10.440;2023-06-19T14:38:33;26.90;99.90
7155;DHT22;3619;53.784;10.440;2023-06-19T14:41:00;27.00;99.90
7155;DHT22;3619;53.784;10.440;2023-06-19T14:43:27;27.30;99.90
7155;DHT22;3619;53.784;10.440;2023-06-19T14:45:55;27.10;99.90
7155;DHT22;3619;53.784;10.440;2023-06-19T14:48:22;27.00;99.90
7155;DHT22;3619;53.784;10.440;2023-06-19T14:50:48;26.90;99.90
7155;DHT22;3619;53.784;10.440;2023-06-19T14:53:49;27.00;99.90
7155;DHT22;3619;53.784;10.440;2023-06-19T14:57:18;26.90;99.90
7155;DHT22;3619;53.784;10.440;2023-06-19T15:08:53;27.00;99.90
7155;DHT22;3619;53.784;10.440;2023-06-19T15:09:54;27.00;99.90
7155;DHT22;3619;53.784;10.440;2023-06-19T15:12:21;26.70;99.90
7155;DHT22;3619;53.784;10.440;2023-06-19T15:14:48;26.30;99.90
7155;DHT22;3619;53.784;10.440;2023-06-19T15:17:15;26.10;99.90
7155;DHT22;3619;53.784;10.440;2023-06-19T15:19:42;26.10;99.90
7155;DHT22;3619;53.784;10.440;2023-06-19T15:22:09;26.00;99.90
7155;DHT22;3619;53.784;10.440;2023-06-19T15:27:43;26.10;99.90
7155;DHT22;3619;53.784;10.440;2023-06-19T15:30:11;26.10;99.90
7155;DHT22;3619;53.784;10.440;2023-06-19T15:32:38;25.90;99.90
7155;DHT22;3619;53.784;10.440;2023-06-19T15:35:06;25.80;99.90
7155;DHT22;3619;53.784;10.440;2023-06-19T15:37:33;25.60;99.90
7155;DHT22;3619;53.784;10.440;2023-06-19T15:39:59;25.50;99.90
7155;DHT22;3619;53.784;10.440;2023-06-19T15:42:27;25.40;99.90
7155;DHT22;3619;53.784;10.440;2023-06-19T15:44:55;25.40;99.90
7155;DHT22;3619;53.784;10.440;2023-06-19T15:47:22;25.40;99.90
7155;DHT22;3619;53.784;10.440;2023-06-19T15:49:48;25.50;99.90
7155;DHT22;3619;53.784;10.440;2023-06-19T15:52:15;25.40;99.90
7155;DHT22;3619;53.784;10.440;2023-06-19T15:54:42;25.40;99.90
7155;DHT22;3619;53.784;10.440;2023-06-19T15:57:09;25.20;99.90
7155;DHT22;3619;53.784;10.440;2023-06-19T15:59:38;24.80;99.90
7155;DHT22;3619;53.784;10.440;2023-06-19T16:02:06;24.80;99.90
7155;DHT22;3619;53.784;10.440;2023-06-19T16:04:33;24.70;99.90
7155;DHT22;3619;53.784;10.440;2023-06-19T16:07:00;24.80;99.90
7155;DHT22;3619;53.784;10.440;2023-06-19T16:09:27;24.90;99.90
7155;DHT22;3619;53.784;10.440;2023-06-19T16:11:54;25.00;99.90
7155;DHT22;3619;53.784;10.440;2023-06-19T16:14:25;25.00;99.90
7155;DHT22;3619;53.784;10.440;2023-06-19T16:16:52;25.00;99.90
7155;DHT22;3619;53.784;10.440;2023-06-19T16:19:20;24.80;99.90
7155;DHT22;3619;53.784;10.440;2023-06-19T16:21:47;24.80;99.90
7155;DHT22;3619;53.784;10.440;2023-06-19T16:24:14;24.70;99.90
7155;DHT22;3619;53.784;10.440;2023-06-19T16:26:54;24.70;99.90
7155;DHT22;3619;53.784;10.440;2023-06-19T16:29:31;24.60;99.90
7155;DHT22;3619;53.784;10.440;2023-06-19T16:32:02;24.50;99.90
7155;DHT22;3619;53.784;10.440;2023-06-19T16:34:31;24.60;99.90
7155;DHT22;3619;53.784;10.440;2023-06-19T16:36:58;24.70;99.90
7155;DHT22;3619;53.784;10.440;2023-06-19T16:39:25;24.80;99.90
7155;DHT22;3619;53.784;10.440;2023-06-19T16:41:53;24.80;99.90
7155;DHT22;3619;53.784;10.440;2023-06-19T16:44:19;24.90;99.90
7155;DHT22;3619;53.784;10.440;2023-06-19T16:46:47;25.00;99.90
7155;DHT22;3619;53.784;10.440;2023-06-19T16:49:16;24.90;99.90
7155;DHT22;3619;53.784;10.440;2023-06-19T16:53:54;25.00;99.90
7155;DHT22;3619;53.784;10.440;2023-06-19T16:54:44;24.80;99.90
7155;DHT22;3619;53.784;10.440;2023-06-19T16:57:51;24.90;99.90
7155;DHT22;3619;53.784;10.440;2023-06-19T17:00:18;25.00;99.90
7155;DHT22;3619;53.784;10.440;2023-06-19T17:02:45;25.00;99.90
7155;DHT22;3619;53.784;10.440;2023-06-19T17:05:14;25.00;99.90
7155;DHT22;3619;53.784;10.440;2023-06-19T17:07:42;25.10;99.90
7155;DHT22;3619;53.784;10.440;2023-06-19T17:10:12;25.10;99.90
7155;DHT22;3619;53.784;10.440;2023-06-19T17:12:40;25.10;99.90
7155;DHT22;3619;53.784;10.440;2023-06-19T17:15:08;25.00;99.90
7155;DHT22;3619;53.784;10.440;2023-06-19T17:17:35;25.00;99.90
7155;DHT22;3619;53.784;10.440;2023-06-19T17:20:03;25.00;99.90
7155;DHT22;3619;53.784;10.440;2023-06-19T17:22:33;24.90;99.90
7155;DHT22;3619;53.784;10.440;2023-06-19T17:25:12;24.80;99.90
7155;DHT22;3619;53.784;10.440;2023-06-19T17:27:50;24.90;99.90
7155;DHT22;3619;53.784;10.440;2023-06-19T17:30:17;24.80;99.90